Time;durP1;ratioP1;P1;durP2;ratioP2;P2;SDS_P1;SDS_P2;PMS_P1;PMS_P2;Temp;Humidity;BMP_temperature;BMP_pressure;BME280_temperature;BME280_humidity;BME280_pressure;Samples;Min_cycle;Max_cycle;Signal;HPM_P1;HPM_P2
2022/01/04 00:00:52;;;;;;;5.50;2.88;;;;;;;6.53;100.00;97538.03;10321935;28;20062;-80
2022/01/04 00:05:52;;;;;;;6.20;2.70;;;;;;;6.53;100.00;97528.13;10320617;28;20075;-79
2022/01/04 00:11:06;;;;;;;4.13;2.50;;;;;;;6.55;100.00;97511.81;10319465;28;20063;-78
2022/01/04 00:16:07;;;;;;;4.70;2.70;;;;;;;6.56;100.00;97505.38;10272142;28;20062;-78
2022/01/04 00:21:08;;;;;;;5.53;2.10;;;;;;;6.56;100.00;97490.19;10272078;28;20046;-78
2022/01/04 00:26:09;;;;;;;3.30;1.98;;;;;;;6.59;100.00;97482.66;10284069;28;20059;-79
2022/01/04 00:31:09;;;;;;;7.47;3.05;;;;;;;6.61;100.00;97473.25;10265629;28;20055;-78
2022/01/04 00:36:10;;;;;;;5.30;2.40;;;;;;;6.65;100.00;97452.84;10256135;28;20054;-80
2022/01/04 00:41:10;;;;;;;5.95;2.65;;;;;;;6.57;100.00;97437.63;10274977;28;20129;-77
2022/01/04 00:46:16;;;;;;;5.03;2.65;;;;;;;6.63;100.00;97431.06;10265783;28;20089;-78
2022/01/04 00:51:17;;;;;;;5.53;2.40;;;;;;;6.67;100.00;97421.31;10271347;28;20089;-78
2022/01/04 00:56:17;;;;;;;5.93;2.10;;;;;;;6.63;100.00;97415.06;10266450;28;20086;-77
2022/01/04 01:01:19;;;;;;;6.43;2.05;;;;;;;6.70;100.00;97393.25;10263778;28;20498;-77
2022/01/04 01:06:20;;;;;;;3.40;1.80;;;;;;;6.69;100.00;97383.69;10284621;28;20058;-76
2022/01/04 01:11:21;;;;;;;4.22;2.00;;;;;;;6.69;100.00;97371.13;10275530;28;20098;-76
2022/01/04 01:16:22;;;;;;;3.70;2.38;;;;;;;6.74;100.00;97367.50;10268811;28;20051;-76
2022/01/04 01:21:24;;;;;;;4.30;2.30;;;;;;;6.75;100.00;97348.50;10284072;28;20058;-77
2022/01/04 01:26:26;;;;;;;3.15;2.00;;;;;;;6.74;100.00;97338.94;10269910;28;20507;-78
2022/01/04 01:31:27;;;;;;;3.65;2.35;;;;;;;6.69;100.00;97338.34;10264620;28;20077;-77
2022/01/04 01:36:28;;;;;;;3.65;2.30;;;;;;;6.68;100.00;97336.78;10298231;28;20054;-77
2022/01/04 01:41:29;;;;;;;4.53;2.40;;;;;;;6.66;100.00;97320.31;10263964;28;20122;-77
2022/01/04 01:46:29;;;;;;;6.68;2.53;;;;;;;6.59;100.00;97320.81;10262957;28;20066;-77
2022/01/04 01:51:31;;;;;;;5.05;2.63;;;;;;;6.56;100.00;97306.22;10273879;28;20047;-76
2022/01/04 01:56:32;;;;;;;7.13;2.60;;;;;;;6.62;100.00;97300.72;10245430;28;20081;-76
2022/01/04 02:01:32;;;;;;;3.30;2.22;;;;;;;6.67;100.00;97297.88;10260993;28;20114;-77
2022/01/04 02:06:33;;;;;;;3.97;2.20;;;;;;;6.69;100.00;97290.34;10268805;28;20487;-79
2022/01/04 02:11:34;;;;;;;7.18;2.30;;;;;;;6.65;100.00;97271.53;10276623;28;20059;-78
2022/01/04 02:16:35;;;;;;;3.47;2.10;;;;;;;6.71;100.00;97266.81;10255432;28;20059;-77
2022/01/04 02:21:37;;;;;;;6.80;2.25;;;;;;;6.74;100.00;97250.94;10282246;28;20050;-77
2022/01/04 02:26:40;;;;;;;4.07;2.33;;;;;;;6.78;100.00;97243.09;10283303;28;20059;-80
2022/01/04 02:31:41;;;;;;;3.67;2.05;;;;;;;6.81;100.00;97221.88;10271500;28;20398;-77
2022/01/04 02:36:42;;;;;;;5.55;2.30;;;;;;;6.82;100.00;97210.09;10269288;28;20063;-76
2022/01/04 02:41:43;;;;;;;4.72;2.47;;;;;;;6.84;100.00;97202.56;10256717;28;20209;-77
2022/01/04 02:46:44;;;;;;;4.88;2.50;;;;;;;6.89;100.00;97198.94;10287094;28;20059;-77
2022/01/04 02:51:44;;;;;;;4.38;2.50;;;;;;;6.89;100.00;97188.25;10264952;28;20051;-76
2022/01/04 02:56:45;;;;;;;3.35;2.42;;;;;;;6.89;100.00;97179.47;10293918;28;20057;-77
2022/01/04 03:01:47;;;;;;;3.90;2.58;;;;;;;6.88;100.00;97181.38;10284174;28;20053;-78
2022/01/04 03:06:48;;;;;;;6.50;2.53;;;;;;;6.91;100.00;97180.72;10276992;28;20059;-77
2022/01/04 03:11:48;;;;;;;4.45;2.30;;;;;;;6.92;100.00;97158.25;10272582;28;20481;-78
2022/01/04 03:16:49;;;;;;;5.57;2.30;;;;;;;6.90;100.00;97143.69;10313934;28;20051;-77
2022/01/04 03:21:49;;;;;;;5.82;2.20;;;;;;;6.96;100.00;97145.84;10311695;28;20425;-77
2022/01/04 03:26:50;;;;;;;3.38;2.20;;;;;;;7.01;100.00;97134.97;10260404;28;20073;-77
2022/01/04 03:31:52;;;;;;;6.38;2.30;;;;;;;7.07;100.00;97122.22;10277636;28;20070;-77
2022/01/04 03:36:54;;;;;;;4.47;2.30;;;;;;;7.04;100.00;97117.50;10271234;28;20092;-77
2022/01/04 03:41:55;;;;;;;5.90;2.50;;;;;;;7.05;100.00;97111.09;10277886;28;20049;-77
2022/01/04 03:46:56;;;;;;;3.15;2.58;;;;;;;7.07;100.00;97101.66;10268120;28;20142;-77
2022/01/04 03:51:59;;;;;;;8.68;2.65;;;;;;;7.03;100.00;97091.94;10300702;28;20066;-77
2022/01/04 03:56:59;;;;;;;4.68;2.17;;;;;;;7.06;100.00;97081.41;10315882;28;20051;-77
2022/01/04 04:02:02;;;;;;;3.30;2.22;;;;;;;7.04;100.00;97066.81;10309936;28;20035;-76
2022/01/04 04:07:04;;;;;;;4.57;2.50;;;;;;;7.07;100.00;97058.97;10350220;28;20110;-78
2022/01/04 04:12:05;;;;;;;2.60;2.00;;;;;;;7.08;100.00;97070.41;10298895;28;20510;-75
2022/01/04 04:17:09;;;;;;;3.17;2.50;;;;;;;7.07;100.00;97056.28;10264700;28;20058;-76
2022/01/04 04:22:11;;;;;;;4.53;2.90;;;;;;;7.03;100.00;97046.59;10268003;28;20066;-77
2022/01/04 04:27:13;;;;;;;4.68;2.70;;;;;;;7.04;100.00;97026.81;10266006;28;20133;-77
2022/01/04 04:32:16;;;;;;;6.13;2.83;;;;;;;6.98;100.00;97015.59;10268104;28;20074;-77
2022/01/04 04:37:16;;;;;;;5.97;2.83;;;;;;;7.00;100.00;97010.69;10269770;28;20101;-77
2022/01/04 04:42:19;;;;;;;4.93;2.90;;;;;;;6.96;100.00;97003.69;10291926;28;20055;-78
2022/01/04 04:47:22;;;;;;;7.40;3.08;;;;;;;6.95;100.00;96984.25;10280387;28;20051;-78
2022/01/04 04:52:23;;;;;;;4.00;2.72;;;;;;;6.96;100.00;96977.03;10276885;28;20045;-77
2022/01/04 04:57:24;;;;;;;5.45;3.30;;;;;;;6.97;100.00;96976.69;10257494;28;20074;-78
2022/01/04 05:02:25;;;;;;;5.70;2.83;;;;;;;6.99;100.00;96963.78;10266146;28;20111;-77
2022/01/04 05:07:26;;;;;;;4.75;3.33;;;;;;;7.00;100.00;96956.56;10294983;28;20062;-78
2022/01/04 05:12:26;;;;;;;4.53;2.70;;;;;;;7.05;100.00;96953.69;10314480;28;20062;-77
2022/01/04 05:17:28;;;;;;;6.70;3.47;;;;;;;7.07;100.00;96943.47;10289799;28;20063;-77
2022/01/04 05:22:28;;;;;;;3.97;3.25;;;;;;;7.09;100.00;96938.56;10282052;28;20061;-78
2022/01/04 05:27:30;;;;;;;4.20;3.30;;;;;;;7.12;100.00;96927.22;10267166;28;20506;-77
2022/01/04 05:32:32;;;;;;;5.15;3.10;;;;;;;7.15;100.00;96920.47;10255927;28;20162;-78
2022/01/04 05:37:32;;;;;;;7.65;3.80;;;;;;;7.16;100.00;96917.47;10258527;28;20058;-77
2022/01/04 05:42:33;;;;;;;6.13;3.90;;;;;;;7.18;100.00;96906.44;10279491;28;20498;-77
2022/01/04 05:47:33;;;;;;;7.32;3.58;;;;;;;7.17;100.00;96907.56;10299011;28;20094;-75
2022/01/04 05:52:34;;;;;;;6.97;3.60;;;;;;;7.23;100.00;96900.91;10293792;28;20070;-78
2022/01/04 05:57:35;;;;;;;7.20;3.90;;;;;;;7.20;100.00;96883.66;10290884;28;20081;-77
2022/01/04 06:02:36;;;;;;;9.45;3.97;;;;;;;7.25;100.00;96882.66;10286723;28;20520;-77
2022/01/04 06:07:36;;;;;;;6.75;3.92;;;;;;;7.24;100.00;96868.53;10279854;28;20367;-76
2022/01/04 06:17:47;;;;;;;7.43;4.13;;;;;;;7.21;100.00;96858.53;10312716;28;20043;-77
2022/01/04 06:22:52;;;;;;;5.47;3.75;;;;;;;7.23;100.00;96850.19;10312359;28;20655;-76
2022/01/04 06:27:55;;;;;;;5.13;3.50;;;;;;;7.24;100.00;96841.09;10298787;28;20047;-77
2022/01/04 06:32:55;;;;;;;6.35;3.22;;;;;;;7.24;100.00;96828.53;10284821;28;20191;-77
2022/01/04 06:37:56;;;;;;;5.47;3.22;;;;;;;7.29;100.00;96827.50;10276272;28;20122;-76
2022/01/04 06:42:59;;;;;;;6.60;3.38;;;;;;;7.23;100.00;96812.84;10271034;28;20043;-76
2022/01/04 06:48:00;;;;;;;5.80;3.55;;;;;;;7.20;100.00;96816.94;10263967;28;20194;-77
2022/01/04 06:53:01;;;;;;;6.22;3.38;;;;;;;7.16;100.00;96799.28;10273091;28;20053;-77
2022/01/04 06:58:02;;;;;;;7.85;4.00;;;;;;;7.19;100.00;96801.28;10264291;28;20102;-78
2022/01/04 07:03:03;;;;;;;5.38;3.70;;;;;;;7.18;100.00;96786.38;10284200;28;20102;-76
2022/01/04 07:08:04;;;;;;;4.07;3.33;;;;;;;7.16;100.00;96781.38;10290747;28;20812;-78
2022/01/04 07:13:06;;;;;;;7.10;3.80;;;;;;;7.19;100.00;96770.03;10288794;28;20402;-77
2022/01/04 07:18:06;;;;;;;6.10;3.65;;;;;;;7.19;100.00;96764.69;10268392;28;20113;-78
2022/01/04 07:23:09;;;;;;;7.80;3.70;;;;;;;7.16;100.00;96762.72;10283249;28;20063;-76
2022/01/04 07:28:10;;;;;;;7.32;3.90;;;;;;;7.13;100.00;96756.16;10280776;28;20159;-77
2022/01/04 07:33:11;;;;;;;6.90;3.53;;;;;;;7.19;100.00;96756.69;10282554;28;20047;-77
2022/01/04 07:38:12;;;;;;;7.28;4.05;;;;;;;7.16;100.00;96751.28;10265908;28;20058;-77
2022/01/04 07:43:12;;;;;;;5.75;3.78;;;;;;;7.19;100.00;96753.25;10284895;28;20054;-76
2022/01/04 07:48:13;;;;;;;6.00;4.07;;;;;;;7.19;100.00;96753.25;10279600;28;20059;-78
2022/01/04 07:53:13;;;;;;;9.38;4.72;;;;;;;7.23;100.00;96749.59;10276064;28;20065;-77
2022/01/04 07:58:15;;;;;;;7.20;3.78;;;;;;;7.25;100.00;96738.56;10276987;28;20046;-77
2022/01/04 08:03:16;;;;;;;7.13;4.00;;;;;;;7.26;100.00;96735.56;10279163;28;20055;-77
2022/01/04 08:08:17;;;;;;;6.50;3.53;;;;;;;7.29;100.00;96726.88;10284868;28;20677;-76
2022/01/04 08:13:18;;;;;;;7.85;4.32;;;;;;;7.26;100.00;96727.56;10290063;28;20133;-76
2022/01/04 08:18:19;;;;;;;6.57;3.67;;;;;;;7.30;100.00;96727.63;10272863;28;20047;-77
2022/01/04 08:23:20;;;;;;;7.13;3.75;;;;;;;7.34;100.00;96705.28;10277079;28;20109;-76
2022/01/04 08:28:24;;;;;;;5.82;3.47;;;;;;;7.31;100.00;96699.84;10293724;28;20069;-76
2022/01/04 08:33:26;;;;;;;5.00;3.53;;;;;;;7.34;100.00;96688.50;10326714;28;20027;-77
2022/01/04 08:38:27;;;;;;;6.93;3.30;;;;;;;7.40;100.00;96693.22;10331123;28;20042;-76
2022/01/04 08:43:29;;;;;;;6.82;3.58;;;;;;;7.41;100.00;96686.81;10332004;28;20069;-77
2022/01/04 08:48:31;;;;;;;5.43;3.70;;;;;;;7.43;100.00;96683.78;10257432;28;20141;-77
2022/01/04 08:53:31;;;;;;;7.80;4.43;;;;;;;7.46;100.00;96672.41;10273562;28;20047;-76
2022/01/04 08:58:32;;;;;;;6.35;4.18;;;;;;;7.50;100.00;96662.63;10287011;28;20066;-76
2022/01/04 09:03:33;;;;;;;8.00;4.22;;;;;;;7.53;100.00;96658.50;10296989;28;20034;-76
2022/01/04 09:08:36;;;;;;;6.75;3.97;;;;;;;7.58;100.00;96650.22;10321588;28;20114;-74
2022/01/04 09:13:42;;;;;;;7.82;4.25;;;;;;;7.58;100.00;96642.97;10313465;28;20059;-76
2022/01/04 09:18:43;;;;;;;7.30;3.85;;;;;;;7.65;100.00;96637.03;10326064;28;20299;-76
2022/01/04 09:23:46;;;;;;;;;;;;;;;7.68;100.00;96628.34;10316920;28;20064;-77
2022/01/04 09:28:48;;;;;;;5.65;3.63;;;;;;;7.72;100.00;96623.88;10334534;28;19921;-75
2022/01/04 09:33:52;;;;;;;5.80;4.00;;;;;;;7.73;100.00;96620.09;10312852;28;20062;-77
2022/01/04 09:38:53;;;;;;;5.82;3.85;;;;;;;7.75;100.00;96612.50;10320807;28;20053;-78
2022/01/04 09:43:53;;;;;;;6.28;4.43;;;;;;;7.78;100.00;96601.16;10308093;28;20062;-78
2022/01/04 09:48:54;;;;;;;6.55;4.75;;;;;;;7.83;100.00;96594.75;10310235;28;20045;-76
2022/01/04 09:53:55;;;;;;;7.93;4.95;;;;;;;7.84;100.00;96582.94;10339393;28;20063;-77
2022/01/04 09:58:55;;;;;;;9.00;5.00;;;;;;;7.90;100.00;96571.66;10319129;28;20317;-76
2022/01/04 10:03:56;;;;;;;8.63;4.93;;;;;;;7.95;100.00;96568.75;10320888;28;20098;-78
2022/01/04 10:09:11;;;;;;;7.80;4.63;;;;;;;7.97;100.00;96549.69;10318790;28;20082;-78
2022/01/04 10:14:35;;;;;;;8.23;4.15;;;;;;;8.03;100.00;96544.84;10336576;28;20043;-76
2022/01/04 10:19:45;;;;;;;6.32;4.97;;;;;;;8.07;100.00;96543.81;10316049;28;20047;-79
2022/01/04 10:24:48;;;;;;;7.85;4.50;;;;;;;8.17;100.00;96537.13;10330704;28;20054;-77
2022/01/04 10:30:11;;;;;;;7.75;4.57;;;;;;;8.19;100.00;96530.31;10321664;28;20055;-77
2022/01/04 10:35:41;;;;;;;7.97;4.15;;;;;;;8.23;100.00;96525.06;10320940;28;20043;-75
2022/01/04 10:40:59;;;;;;;7.57;4.07;;;;;;;8.31;100.00;96499.22;10327357;28;20055;-77
2022/01/04 10:46:03;;;;;;;4.40;3.78;;;;;;;8.36;100.00;96488.31;10322856;28;20050;-77
2022/01/04 10:51:13;;;;;;;6.30;4.03;;;;;;;8.46;100.00;96482.38;10317522;28;20082;-76
2022/01/04 10:56:17;;;;;;;5.97;3.72;;;;;;;8.46;100.00;96482.38;10322679;28;20064;-76
2022/01/04 11:01:20;;;;;;;5.00;4.03;;;;;;;8.48;100.00;96472.88;10326573;28;20094;-75
2022/01/04 11:06:34;;;;;;;6.85;4.53;;;;;;;8.52;100.00;96462.28;10321803;28;20062;-75
2022/01/04 11:11:36;;;;;;;7.55;4.53;;;;;;;8.57;100.00;96456.63;10336026;28;20054;-75
2022/01/04 11:16:37;;;;;;;7.20;4.88;;;;;;;8.60;100.00;96450.59;10336149;28;20057;-77
2022/01/04 11:21:43;;;;;;;7.72;4.78;;;;;;;8.66;100.00;96441.13;10337146;28;20058;-77
2022/01/04 11:26:46;;;;;;;6.55;5.13;;;;;;;8.71;100.00;96434.72;10332384;28;20130;-75
2022/01/04 11:32:01;;;;;;;8.05;5.18;;;;;;;8.84;100.00;96431.50;10334900;28;20046;-78
2022/01/04 11:37:02;;;;;;;9.68;5.40;;;;;;;8.91;100.00;96414.81;10330753;28;20038;-75
2022/01/04 11:42:07;;;;;;;11.50;5.07;;;;;;;9.01;100.00;96408.88;10332845;28;20042;-77
2022/01/04 11:47:17;;;;;;;9.75;4.60;;;;;;;9.07;100.00;96404.00;10315467;28;20051;-76
2022/01/04 11:52:52;;;;;;;8.25;4.88;;;;;;;9.16;100.00;96393.81;10327732;28;20027;-77
2022/01/04 11:57:59;;;;;;;9.18;5.25;;;;;;;9.20;100.00;96381.25;10325175;28;20061;-77
2022/01/04 12:03:05;;;;;;;8.38;4.60;;;;;;;9.28;100.00;96369.50;10323509;28;20074;-77
2022/01/04 12:08:16;;;;;;;11.52;4.72;;;;;;;9.32;100.00;96356.16;10325657;28;20758;-76
2022/01/04 12:13:21;;;;;;;7.03;4.15;;;;;;;9.41;100.00;96346.72;10330906;28;20054;-77
2022/01/04 12:18:51;;;;;;;8.05;4.38;;;;;;;9.51;100.00;96341.88;10335782;28;20035;-77
2022/01/04 12:23:52;;;;;;;6.20;3.97;;;;;;;9.63;100.00;96334.41;10347570;28;20051;-77
2022/01/04 12:29:00;;;;;;;5.53;3.55;;;;;;;9.82;100.00;96336.16;10328433;28;20071;-76
2022/01/04 12:34:04;;;;;;;8.80;4.00;;;;;;;9.87;100.00;96332.38;10329900;28;20054;-76
2022/01/04 12:39:15;;;;;;;3.70;2.50;;;;;;;9.92;100.00;96327.47;10312571;28;20071;-76
2022/01/04 12:44:25;;;;;;;4.50;2.13;;;;;;;9.98;100.00;96319.91;10321222;28;20447;-77
2022/01/04 12:49:29;;;;;;;3.60;2.25;;;;;;;10.09;100.00;96317.31;10315752;28;20064;-75
2022/01/04 12:54:35;;;;;;;3.70;2.50;;;;;;;10.14;100.00;96312.38;10321330;28;20061;-75
2022/01/04 12:59:42;;;;;;;3.20;2.30;;;;;;;10.19;100.00;96316.66;10315263;28;20055;-76
2022/01/04 13:04:48;;;;;;;2.55;1.95;;;;;;;10.22;100.00;96321.31;10317336;28;20138;-75
2022/01/04 13:09:52;;;;;;;2.30;1.50;;;;;;;10.25;100.00;96320.59;10328341;28;20054;-75
2022/01/04 13:14:56;;;;;;;2.90;1.80;;;;;;;10.30;100.00;96319.47;10323627;28;20066;-76
2022/01/04 13:19:57;;;;;;;1.38;1.10;;;;;;;10.26;100.00;96311.41;10346628;28;20031;-75
2022/01/04 13:25:05;;;;;;;1.83;1.20;;;;;;;10.23;100.00;96312.13;10320512;28;20087;-77
2022/01/04 13:30:08;;;;;;;3.10;1.40;;;;;;;10.22;100.00;96305.22;10309527;28;20050;-75
2022/01/04 13:35:29;;;;;;;2.90;1.60;;;;;;;10.23;100.00;96334.34;10295382;28;20078;-77
2022/01/04 13:40:34;;;;;;;2.80;1.70;;;;;;;10.06;100.00;96367.09;10309887;28;20065;-75
2022/01/04 13:45:51;;;;;;;1.85;1.23;;;;;;;9.89;100.00;96389.06;10326334;28;20039;-77
2022/01/04 13:50:53;;;;;;;1.50;0.77;;;;;;;9.37;100.00;96385.31;10321465;28;20027;-76
2022/01/04 13:56:08;;;;;;;0.70;0.50;;;;;;;8.97;100.00;96377.84;10305580;28;20043;-75
2022/01/04 14:01:23;;;;;;;1.52;0.70;;;;;;;8.76;100.00;96410.34;10312471;28;20061;-76
2022/01/04 14:06:32;;;;;;;1.65;1.10;;;;;;;8.58;100.00;96430.66;10310558;28;20097;-77
2022/01/04 14:11:35;;;;;;;2.03;1.15;;;;;;;7.79;100.00;96457.72;10313786;28;20058;-75
2022/01/04 14:16:46;;;;;;;1.25;0.88;;;;;;;7.43;100.00;96488.16;10307116;28;20106;-76
2022/01/04 14:22:03;;;;;;;2.38;1.20;;;;;;;7.17;100.00;96504.69;10302993;28;20082;-76
2022/01/04 14:27:10;;;;;;;2.25;1.17;;;;;;;6.98;100.00;96516.81;10298254;28;20106;-75
2022/01/04 14:32:11;;;;;;;0.75;0.60;;;;;;;6.64;100.00;96523.53;10302823;28;20035;-77
2022/01/04 14:37:11;;;;;;;1.83;0.80;;;;;;;6.54;100.00;96543.44;10339002;28;20035;-76
2022/01/04 14:42:12;;;;;;;0.60;0.57;;;;;;;6.31;100.00;96547.75;10320414;28;20074;-76
2022/01/04 14:47:13;;;;;;;1.30;0.80;;;;;;;6.13;100.00;96563.22;10321255;28;20086;-75
2022/01/04 14:52:14;;;;;;;1.15;0.68;;;;;;;6.03;100.00;96568.97;10300295;28;20042;-75
2022/01/04 14:57:16;;;;;;;0.52;0.50;;;;;;;5.88;100.00;96581.06;10314980;28;20038;-76
2022/01/04 15:02:16;;;;;;;0.85;0.65;;;;;;;5.78;100.00;96613.47;10331729;28;20059;-76
2022/01/04 15:07:17;;;;;;;1.02;0.70;;;;;;;5.73;100.00;96621.66;10307981;28;20082;-74
2022/01/04 15:12:18;;;;;;;1.08;0.90;;;;;;;5.49;100.00;96627.72;10321582;28;20038;-74
2022/01/04 15:17:18;;;;;;;1.38;0.60;;;;;;;5.25;100.00;96628.44;10308704;28;20103;-75
2022/01/04 15:22:22;;;;;;;3.70;1.70;;;;;;;5.12;100.00;96624.97;10319604;28;20150;-76
2022/01/04 15:27:26;;;;;;;0.98;0.70;;;;;;;5.07;100.00;96661.63;10311833;28;20131;-75
2022/01/04 15:32:28;;;;;;;1.75;1.30;;;;;;;5.00;100.00;96661.34;10310456;28;20055;-74
2022/01/04 15:37:28;;;;;;;0.98;0.80;;;;;;;4.90;100.00;96659.09;10309509;28;20047;-74
2022/01/04 15:42:29;;;;;;;1.58;1.38;;;;;;;4.90;100.00;96675.06;10333302;28;20066;-76
2022/01/04 15:47:30;;;;;;;0.77;0.60;;;;;;;4.87;100.00;96696.97;10325130;28;20207;-75
2022/01/04 15:52:31;;;;;;;1.40;1.17;;;;;;;4.78;100.00;96697.81;10330676;28;20075;-75
2022/01/04 15:57:35;;;;;;;3.05;1.35;;;;;;;4.85;100.00;96716.69;10320560;28;20050;-74
2022/01/04 16:02:36;;;;;;;2.60;1.58;;;;;;;4.72;100.00;96709.72;10320645;28;20050;-77
2022/01/04 16:07:38;;;;;;;1.20;0.88;;;;;;;4.76;100.00;96729.25;10323570;28;20671;-75
2022/01/04 16:12:38;;;;;;;3.72;1.55;;;;;;;4.69;100.00;96738.84;10316972;28;20036;-74
2022/01/04 16:17:49;;;;;;;1.25;1.05;;;;;;;4.83;100.00;96769.38;10322125;28;20059;-75
2022/01/04 16:22:50;;;;;;;2.83;2.20;;;;;;;4.92;100.00;96779.16;10316374;28;20123;-76
2022/01/04 16:27:52;;;;;;;3.92;2.67;;;;;;;5.01;100.00;96799.28;10322549;28;20045;-76
2022/01/04 16:32:55;;;;;;;1.45;1.13;;;;;;;4.97;100.00;96789.63;10331773;28;20050;-76
2022/01/04 16:37:55;;;;;;;2.05;1.05;;;;;;;5.00;100.00;96794.28;10311707;28;20027;-76
2022/01/04 16:42:56;;;;;;;1.20;1.05;;;;;;;5.04;100.00;96782.72;10317608;28;20043;-76
2022/01/04 16:47:57;;;;;;;4.00;2.72;;;;;;;5.04;100.00;96782.72;10313778;28;20106;-76
2022/01/04 16:52:58;;;;;;;2.38;1.73;;;;;;;4.90;100.00;96792.78;10335514;28;20373;-76
2022/01/04 16:57:59;;;;;;;4.10;1.92;;;;;;;4.88;100.00;96789.69;10334039;28;20051;-75
2022/01/04 17:03:00;;;;;;;1.65;1.30;;;;;;;4.81;100.00;96811.44;10327982;28;20114;-76
2022/01/04 17:08:01;;;;;;;4.45;1.75;;;;;;;4.89;100.00;96814.38;10310256;28;20054;-76
2022/01/04 17:18:21;;;;;;;2.25;0.90;;;;;;;4.73;100.00;96816.81;10318076;28;20038;-74
2022/01/04 17:23:21;;;;;;;3.15;1.58;;;;;;;4.69;100.00;96819.34;10325440;28;20054;-76
2022/01/04 17:28:23;;;;;;;2.65;1.67;;;;;;;4.72;100.00;96833.84;10322822;28;20058;-76
2022/01/04 17:33:24;;;;;;;3.83;2.50;;;;;;;4.73;100.00;96843.38;10336561;28;20057;-76
2022/01/04 17:38:25;;;;;;;2.60;2.33;;;;;;;4.60;100.00;96847.81;10300078;28;20188;-75
2022/01/04 17:43:26;;;;;;;3.63;2.50;;;;;;;4.63;100.00;96851.72;10315268;28;20074;-75
2022/01/04 17:48:28;;;;;;;3.00;2.08;;;;;;;4.76;100.00;96853.38;10313967;28;20041;-76
2022/01/04 17:53:32;;;;;;;2.25;1.50;;;;;;;4.65;100.00;96852.94;10311110;28;20069;-75
2022/01/04 17:58:33;;;;;;;2.45;1.67;;;;;;;4.64;100.00;96847.94;10336252;28;20050;-76
2022/01/04 18:03:34;;;;;;;1.95;1.50;;;;;;;4.66;100.00;96859.03;10324067;28;20039;-76
2022/01/04 18:08:36;;;;;;;4.10;2.15;;;;;;;4.62;100.00;96871.41;10317963;28;20049;-75
2022/01/04 18:13:40;;;;;;;3.45;2.72;;;;;;;4.72;100.00;96879.81;10312795;28;20051;-76
2022/01/04 18:18:41;;;;;;;5.60;3.20;;;;;;;4.73;100.00;96870.72;10318265;28;20099;-77
2022/01/04 18:23:42;;;;;;;4.30;2.90;;;;;;;4.57;100.00;96878.47;10312276;28;20063;-78
2022/01/04 18:28:45;;;;;;;5.50;3.65;;;;;;;4.53;100.00;96879.41;10308368;28;20116;-76
2022/01/04 18:33:48;;;;;;;4.80;3.42;;;;;;;4.53;100.00;96890.03;10331805;28;20055;-76
2022/01/04 18:38:49;;;;;;;4.10;3.17;;;;;;;4.52;100.00;96896.44;10334232;28;20055;-76
2022/01/04 18:43:50;;;;;;;5.78;4.25;;;;;;;4.45;100.00;96899.59;10323270;28;20130;-76
2022/01/04 18:48:52;;;;;;;6.47;3.50;;;;;;;4.45;100.00;96906.78;10318321;28;20058;-76
2022/01/04 18:53:52;;;;;;;7.72;4.05;;;;;;;4.48;100.00;96908.78;10321527;28;20098;-78
2022/01/04 18:58:53;;;;;;;5.45;3.40;;;;;;;4.34;100.00;96900.25;10325241;28;20062;-75
2022/01/04 19:03:54;;;;;;;4.07;3.00;;;;;;;4.26;100.00;96905.25;10323466;28;20045;-75
2022/01/04 19:08:55;;;;;;;5.65;3.10;;;;;;;4.39;100.00;96902.72;10323656;28;20108;-76
2022/01/04 19:13:56;;;;;;;3.92;2.63;;;;;;;4.32;100.00;96895.25;10324846;28;20065;-77
2022/01/04 19:18:56;;;;;;;2.65;2.10;;;;;;;4.33;100.00;96880.88;10317877;28;20051;-77
2022/01/04 19:24:00;;;;;;;;;;;;;;;4.40;100.00;96891.03;10323909;28;20066;-76
2022/01/04 19:29:00;;;;;;;2.95;2.42;;;;;;;4.32;100.00;96886.50;10321961;28;19910;-79
2022/01/04 19:39:06;;;;;;;2.55;1.83;;;;;;;4.19;100.00;96877.59;10346570;28;20042;-78
2022/01/04 19:44:10;;;;;;;4.13;2.57;;;;;;;4.18;100.00;96891.97;10318983;28;20038;-78
2022/01/04 19:49:12;;;;;;;3.60;2.40;;;;;;;4.20;100.00;96901.19;10323274;28;20047;-78
2022/01/04 19:54:15;;;;;;;4.95;3.00;;;;;;;4.16;100.00;96896.84;10331828;28;20047;-78
2022/01/04 19:59:16;;;;;;;5.82;3.30;;;;;;;3.98;100.00;96890.75;10315677;28;20067;-78
2022/01/04 20:04:18;;;;;;;2.85;1.88;;;;;;;3.97;100.00;96900.59;10322712;28;20087;-75
2022/01/04 20:09:19;;;;;;;2.40;2.15;;;;;;;4.11;100.00;96916.34;10313020;28;20066;-78
2022/01/04 20:14:20;;;;;;;3.53;1.70;;;;;;;3.89;100.00;96917.31;10316494;28;20106;-77
2022/01/04 20:19:20;;;;;;;2.35;1.48;;;;;;;3.87;100.00;96924.03;10318071;28;20043;-77
2022/01/04 20:24:21;;;;;;;1.90;1.70;;;;;;;3.82;100.00;96924.94;10326827;28;20041;-77
2022/01/04 20:29:22;;;;;;;2.28;1.70;;;;;;;3.77;100.00;96938.38;10302484;28;20066;-77
2022/01/04 20:34:23;;;;;;;3.17;2.25;;;;;;;3.71;100.00;96943.06;10322016;28;20393;-78
2022/01/04 20:39:25;;;;;;;4.15;3.00;;;;;;;3.82;100.00;96932.13;10321680;28;20089;-77
2022/01/04 20:44:25;;;;;;;3.55;2.45;;;;;;;3.68;100.00;96950.88;10339089;28;20063;-77
2022/01/04 20:49:26;;;;;;;3.13;2.30;;;;;;;3.74;100.00;96954.13;10324755;28;20047;-77
2022/01/04 20:54:27;;;;;;;2.13;1.80;;;;;;;3.84;100.00;96956.47;10322493;28;20035;-77
2022/01/04 20:59:27;;;;;;;2.70;2.00;;;;;;;3.75;100.00;96947.72;10317852;28;20057;-77
2022/01/04 21:04:28;;;;;;;3.05;1.60;;;;;;;3.64;100.00;96963.16;10336207;28;20603;-78
2022/01/04 21:09:28;;;;;;;3.13;1.92;;;;;;;3.67;100.00;96960.69;10321087;28;20058;-76
2022/01/04 21:14:29;;;;;;;2.15;1.60;;;;;;;3.67;100.00;96963.34;10321122;28;20090;-77
2022/01/04 21:19:30;;;;;;;8.25;5.22;;;;;;;3.67;100.00;96968.66;10320114;28;20035;-79
2022/01/04 21:24:31;;;;;;;2.42;1.83;;;;;;;3.58;100.00;96967.09;10339104;28;20031;-77
2022/01/04 21:29:32;;;;;;;3.20;2.35;;;;;;;3.71;100.00;96961.63;10311293;28;20124;-77
2022/01/04 21:34:33;;;;;;;3.05;2.13;;;;;;;3.69;100.00;96971.78;10315457;28;20039;-79
2022/01/04 21:39:34;;;;;;;2.53;1.90;;;;;;;3.64;100.00;96968.47;10319487;28;20095;-78
2022/01/04 21:44:35;;;;;;;3.35;2.40;;;;;;;3.66;100.00;96963.66;10327449;28;20067;-80
2022/01/04 21:49:37;;;;;;;3.17;2.10;;;;;;;3.63;100.00;96962.41;10334778;28;20051;-80
2022/01/04 21:54:39;;;;;;;2.40;1.95;;;;;;;3.62;100.00;96975.97;10329186;28;20077;-77
2022/01/04 21:59:39;;;;;;;2.88;2.30;;;;;;;3.53;100.00;96975.94;10308630;28;20063;-76
2022/01/04 22:04:42;;;;;;;2.38;2.10;;;;;;;3.33;100.00;96971.22;10308669;28;20054;-77
2022/01/04 22:09:47;;;;;;;2.20;1.60;;;;;;;3.23;100.00;96961.69;10315312;28;20042;-79
2022/01/04 22:14:47;;;;;;;2.72;1.70;;;;;;;3.30;100.00;96975.28;10318372;28;20059;-76
2022/01/04 22:19:48;;;;;;;2.70;2.42;;;;;;;3.31;100.00;96984.00;10310874;28;20043;-77
2022/01/04 22:24:53;;;;;;;3.88;2.28;;;;;;;3.26;100.00;96969.00;10317136;28;20041;-78
2022/01/04 22:29:55;;;;;;;2.88;2.28;;;;;;;3.16;100.00;96974.59;10312514;28;20058;-77
2022/01/04 22:34:55;;;;;;;3.53;2.35;;;;;;;3.24;100.00;96981.03;10328596;28;20067;-77
2022/01/04 22:40:00;;;;;;;3.55;2.25;;;;;;;3.14;100.00;96964.31;10319719;28;20059;-77
2022/01/04 22:45:02;;;;;;;6.03;4.10;;;;;;;3.16;100.00;96950.72;10310703;28;20050;-77
2022/01/04 22:50:03;;;;;;;3.20;2.40;;;;;;;3.19;100.00;96955.41;10323621;28;20110;-77
2022/01/04 22:55:03;;;;;;;3.05;2.67;;;;;;;3.01;100.00;96957.22;10311646;28;20083;-77
2022/01/04 23:00:08;;;;;;;4.10;2.85;;;;;;;3.12;100.00;96963.06;10305374;28;20047;-77
2022/01/04 23:05:08;;;;;;;4.05;2.95;;;;;;;3.02;100.00;96960.69;10278046;28;20055;-78
2022/01/04 23:10:10;;;;;;;6.15;3.55;;;;;;;2.98;100.00;96957.06;10275221;28;20059;-78
2022/01/04 23:15:10;;;;;;;5.68;3.42;;;;;;;2.96;100.00;96944.13;10274849;28;20059;-76
2022/01/04 23:20:12;;;;;;;6.15;3.83;;;;;;;2.87;100.00;96942.53;10268743;28;20043;-76
2022/01/04 23:25:12;;;;;;;7.95;4.53;;;;;;;2.85;100.00;96969.31;10282841;28;20055;-76
2022/01/04 23:30:14;;;;;;;7.47;4.70;;;;;;;2.79;100.00;96967.88;10303738;28;20165;-77
2022/01/04 23:35:17;;;;;;;6.47;4.32;;;;;;;2.83;100.00;96955.56;10301770;28;20071;-77
2022/01/04 23:40:18;;;;;;;8.75;4.57;;;;;;;2.78;100.00;96955.72;10310496;28;20051;-76